sensor_id;sensor_type;location;lat;lon;timestamp;P1;durP1;ratioP1;P2;durP2;ratioP2
28958;SDS011;16066;0.000;0.000;2023-06-22T05:31:18;10.90;;;6.60;;
28958;SDS011;16066;0.000;0.000;2023-06-22T05:33:47;8.13;;;6.07;;
28958;SDS011;16066;0.000;0.000;2023-06-22T05:36:15;9.93;;;6.40;;
28958;SDS011;16066;0.000;0.000;2023-06-22T05:38:40;9.50;;;6.33;;
28958;SDS011;16066;0.000;0.000;2023-06-22T05:41:07;8.87;;;5.77;;
28958;SDS011;16066;0.000;0.000;2023-06-22T05:43:32;12.43;;;6.23;;
28958;SDS011;16066;0.000;0.000;2023-06-22T05:45:59;14.63;;;6.67;;
28958;SDS011;16066;0.000;0.000;2023-06-22T05:48:25;6.00;;;5.30;;
28958;SDS011;16066;0.000;0.000;2023-06-22T05:50:51;9.07;;;5.97;;
28958;SDS011;16066;0.000;0.000;2023-06-22T05:53:17;7.80;;;6.00;;
28958;SDS011;16066;0.000;0.000;2023-06-22T05:55:42;10.90;;;6.33;;
28958;SDS011;16066;0.000;0.000;2023-06-22T05:58:08;14.13;;;6.70;;
28958;SDS011;16066;0.000;0.000;2023-06-22T06:00:34;9.30;;;5.97;;
28958;SDS011;16066;0.000;0.000;2023-06-22T06:03:00;10.27;;;6.33;;
28958;SDS011;16066;0.000;0.000;2023-06-22T06:05:32;11.20;;;6.47;;
28958;SDS011;16066;0.000;0.000;2023-06-22T06:07:58;7.23;;;6.07;;
28958;SDS011;16066;0.000;0.000;2023-06-22T06:10:25;10.90;;;6.70;;
28958;SDS011;16066;0.000;0.000;2023-06-22T06:12:50;9.53;;;6.60;;
28958;SDS011;16066;0.000;0.000;2023-06-22T06:15:16;10.17;;;6.20;;
28958;SDS011;16066;0.000;0.000;2023-06-22T06:17:48;17.10;;;6.63;;
28958;SDS011;16066;0.000;0.000;2023-06-22T06:20:18;11.77;;;7.10;;
28958;SDS011;16066;0.000;0.000;2023-06-22T06:22:45;9.07;;;6.10;;
28958;SDS011;16066;0.000;0.000;2023-06-22T06:25:11;7.53;;;6.10;;
28958;SDS011;16066;0.000;0.000;2023-06-22T06:27:41;6.80;;;5.63;;
28958;SDS011;16066;0.000;0.000;2023-06-22T06:30:08;11.13;;;6.80;;
28958;SDS011;16066;0.000;0.000;2023-06-22T06:32:34;8.60;;;6.63;;
28958;SDS011;16066;0.000;0.000;2023-06-22T06:35:00;8.47;;;6.50;;
28958;SDS011;16066;0.000;0.000;2023-06-22T06:37:25;11.67;;;7.17;;
28958;SDS011;16066;0.000;0.000;2023-06-22T06:39:51;8.50;;;6.80;;
28958;SDS011;16066;0.000;0.000;2023-06-22T06:42:16;11.83;;;7.30;;
28958;SDS011;16066;0.000;0.000;2023-06-22T06:44:44;8.90;;;6.70;;
28958;SDS011;16066;0.000;0.000;2023-06-22T06:47:09;13.53;;;6.97;;
28958;SDS011;16066;0.000;0.000;2023-06-22T06:49:35;9.60;;;6.33;;
28958;SDS011;16066;0.000;0.000;2023-06-22T06:52:01;10.33;;;6.80;;
28958;SDS011;16066;0.000;0.000;2023-06-22T06:54:26;11.00;;;7.17;;
28958;SDS011;16066;0.000;0.000;2023-06-22T06:56:52;10.07;;;6.00;;
28958;SDS011;16066;0.000;0.000;2023-06-22T06:59:17;9.90;;;7.13;;
28958;SDS011;16066;0.000;0.000;2023-06-22T07:01:43;14.50;;;6.90;;
28958;SDS011;16066;0.000;0.000;2023-06-22T07:04:09;10.90;;;7.30;;
28958;SDS011;16066;0.000;0.000;2023-06-22T07:06:35;9.57;;;7.50;;
28958;SDS011;16066;0.000;0.000;2023-06-22T07:09:01;14.73;;;8.00;;
28958;SDS011;16066;0.000;0.000;2023-06-22T07:11:28;12.43;;;7.00;;
28958;SDS011;16066;0.000;0.000;2023-06-22T07:13:53;9.50;;;7.33;;
28958;SDS011;16066;0.000;0.000;2023-06-22T07:16:19;8.50;;;7.17;;
28958;SDS011;16066;0.000;0.000;2023-06-22T07:18:45;12.67;;;7.13;;
28958;SDS011;16066;0.000;0.000;2023-06-22T07:21:10;8.53;;;7.30;;
28958;SDS011;16066;0.000;0.000;2023-06-22T07:23:35;12.90;;;7.60;;
28958;SDS011;16066;0.000;0.000;2023-06-22T07:26:01;11.10;;;8.00;;
28958;SDS011;16066;0.000;0.000;2023-06-22T07:28:27;17.10;;;10.00;;
28958;SDS011;16066;0.000;0.000;2023-06-22T07:30:53;23.27;;;10.40;;
28958;SDS011;16066;0.000;0.000;2023-06-22T07:33:19;14.03;;;9.40;;
28958;SDS011;16066;0.000;0.000;2023-06-22T07:35:44;16.53;;;8.70;;
28958;SDS011;16066;0.000;0.000;2023-06-22T07:38:10;15.60;;;8.83;;
28958;SDS011;16066;0.000;0.000;2023-06-22T07:40:35;10.80;;;8.07;;
28958;SDS011;16066;0.000;0.000;2023-06-22T07:43:01;11.20;;;8.47;;
28958;SDS011;16066;0.000;0.000;2023-06-22T07:45:28;13.07;;;8.13;;
28958;SDS011;16066;0.000;0.000;2023-06-22T07:47:54;12.93;;;7.23;;
28958;SDS011;16066;0.000;0.000;2023-06-22T07:50:19;12.93;;;7.57;;
28958;SDS011;16066;0.000;0.000;2023-06-22T07:52:45;11.90;;;7.60;;
28958;SDS011;16066;0.000;0.000;2023-06-22T07:55:12;16.30;;;8.53;;
28958;SDS011;16066;0.000;0.000;2023-06-22T07:57:37;12.73;;;8.50;;
28958;SDS011;16066;0.000;0.000;2023-06-22T08:00:04;10.87;;;8.50;;
28958;SDS011;16066;0.000;0.000;2023-06-22T08:02:40;11.23;;;8.40;;
28958;SDS011;16066;0.000;0.000;2023-06-22T08:05:07;12.13;;;8.60;;
28958;SDS011;16066;0.000;0.000;2023-06-22T08:07:37;12.30;;;8.57;;
28958;SDS011;16066;0.000;0.000;2023-06-22T08:10:09;11.80;;;9.00;;
28958;SDS011;16066;0.000;0.000;2023-06-22T08:12:36;10.57;;;8.50;;
28958;SDS011;16066;0.000;0.000;2023-06-22T08:15:01;13.87;;;9.67;;
28958;SDS011;16066;0.000;0.000;2023-06-22T08:17:27;11.93;;;8.37;;
28958;SDS011;16066;0.000;0.000;2023-06-22T08:19:53;11.33;;;8.77;;
28958;SDS011;16066;0.000;0.000;2023-06-22T08:22:18;14.60;;;9.30;;
28958;SDS011;16066;0.000;0.000;2023-06-22T08:24:44;11.53;;;8.90;;
28958;SDS011;16066;0.000;0.000;2023-06-22T08:27:10;16.10;;;9.03;;
28958;SDS011;16066;0.000;0.000;2023-06-22T08:29:39;14.57;;;9.53;;
28958;SDS011;16066;0.000;0.000;2023-06-22T08:32:07;9.73;;;8.47;;
28958;SDS011;16066;0.000;0.000;2023-06-22T08:34:33;12.50;;;10.33;;
28958;SDS011;16066;0.000;0.000;2023-06-22T08:36:59;13.53;;;9.27;;
28958;SDS011;16066;0.000;0.000;2023-06-22T08:39:25;9.30;;;8.30;;
28958;SDS011;16066;0.000;0.000;2023-06-22T08:41:51;12.97;;;9.00;;
28958;SDS011;16066;0.000;0.000;2023-06-22T08:44:17;10.20;;;8.30;;
28958;SDS011;16066;0.000;0.000;2023-06-22T08:46:44;10.70;;;9.57;;
28958;SDS011;16066;0.000;0.000;2023-06-22T08:49:09;15.70;;;8.70;;
28958;SDS011;16066;0.000;0.000;2023-06-22T08:51:35;10.23;;;8.07;;
28958;SDS011;16066;0.000;0.000;2023-06-22T08:54:01;10.10;;;7.47;;
28958;SDS011;16066;0.000;0.000;2023-06-22T08:56:27;11.60;;;8.60;;
28958;SDS011;16066;0.000;0.000;2023-06-22T08:58:52;11.87;;;9.30;;
28958;SDS011;16066;0.000;0.000;2023-06-22T09:01:18;12.93;;;8.80;;
28958;SDS011;16066;0.000;0.000;2023-06-22T09:03:43;10.60;;;7.77;;
28958;SDS011;16066;0.000;0.000;2023-06-22T09:06:09;11.27;;;8.70;;
28958;SDS011;16066;0.000;0.000;2023-06-22T09:08:35;9.87;;;7.20;;
28958;SDS011;16066;0.000;0.000;2023-06-22T09:11:01;12.37;;;7.90;;
28958;SDS011;16066;0.000;0.000;2023-06-22T09:13:27;8.50;;;7.60;;
28958;SDS011;16066;0.000;0.000;2023-06-22T09:15:54;10.10;;;8.00;;
28958;SDS011;16066;0.000;0.000;2023-06-22T09:18:19;9.70;;;7.60;;
28958;SDS011;16066;0.000;0.000;2023-06-22T09:20:45;13.97;;;7.60;;
28958;SDS011;16066;0.000;0.000;2023-06-22T09:23:10;10.87;;;8.20;;
28958;SDS011;16066;0.000;0.000;2023-06-22T09:25:36;9.63;;;7.77;;
28958;SDS011;16066;0.000;0.000;2023-06-22T09:28:01;9.60;;;7.20;;
28958;SDS011;16066;0.000;0.000;2023-06-22T09:30:27;7.63;;;6.73;;
28958;SDS011;16066;0.000;0.000;2023-06-22T09:32:52;11.80;;;6.83;;
28958;SDS011;16066;0.000;0.000;2023-06-22T09:35:19;10.17;;;7.50;;
28958;SDS011;16066;0.000;0.000;2023-06-22T09:37:45;10.50;;;6.40;;
28958;SDS011;16066;0.000;0.000;2023-06-22T09:40:10;9.17;;;6.60;;
28958;SDS011;16066;0.000;0.000;2023-06-22T09:42:38;6.73;;;6.00;;
28958;SDS011;16066;0.000;0.000;2023-06-22T09:45:04;8.27;;;6.43;;
28958;SDS011;16066;0.000;0.000;2023-06-22T09:47:31;7.13;;;5.97;;
28958;SDS011;16066;0.000;0.000;2023-06-22T09:49:56;8.30;;;6.13;;
28958;SDS011;16066;0.000;0.000;2023-06-22T09:52:24;6.90;;;5.70;;
28958;SDS011;16066;0.000;0.000;2023-06-22T09:54:49;9.00;;;6.50;;
28958;SDS011;16066;0.000;0.000;2023-06-22T09:57:15;9.10;;;7.50;;
28958;SDS011;16066;0.000;0.000;2023-06-22T09:59:40;8.23;;;7.30;;
28958;SDS011;16066;0.000;0.000;2023-06-22T10:02:06;7.87;;;6.97;;
28958;SDS011;16066;0.000;0.000;2023-06-22T10:04:32;7.73;;;6.40;;
28958;SDS011;16066;0.000;0.000;2023-06-22T10:06:59;6.73;;;6.03;;
28958;SDS011;16066;0.000;0.000;2023-06-22T10:09:24;8.60;;;7.20;;
28958;SDS011;16066;0.000;0.000;2023-06-22T10:11:50;7.70;;;6.43;;
28958;SDS011;16066;0.000;0.000;2023-06-22T10:14:15;8.70;;;7.17;;
28958;SDS011;16066;0.000;0.000;2023-06-22T10:16:41;7.70;;;6.90;;
28958;SDS011;16066;0.000;0.000;2023-06-22T10:19:07;8.87;;;6.30;;
28958;SDS011;16066;0.000;0.000;2023-06-22T10:21:33;6.77;;;6.07;;
28958;SDS011;16066;0.000;0.000;2023-06-22T10:23:59;7.90;;;6.87;;
28958;SDS011;16066;0.000;0.000;2023-06-22T10:26:30;7.90;;;6.00;;
28958;SDS011;16066;0.000;0.000;2023-06-22T10:28:57;8.87;;;7.20;;
28958;SDS011;16066;0.000;0.000;2023-06-22T10:31:22;13.27;;;6.80;;
28958;SDS011;16066;0.000;0.000;2023-06-22T10:33:48;10.80;;;6.07;;
28958;SDS011;16066;0.000;0.000;2023-06-22T10:36:14;8.10;;;6.93;;
28958;SDS011;16066;0.000;0.000;2023-06-22T10:38:40;7.83;;;7.00;;
28958;SDS011;16066;0.000;0.000;2023-06-22T10:41:05;10.87;;;7.03;;
28958;SDS011;16066;0.000;0.000;2023-06-22T10:43:31;8.07;;;6.73;;
28958;SDS011;16066;0.000;0.000;2023-06-22T10:45:56;7.90;;;7.10;;
28958;SDS011;16066;0.000;0.000;2023-06-22T10:48:22;10.27;;;8.60;;
28958;SDS011;16066;0.000;0.000;2023-06-22T10:50:47;9.23;;;7.33;;
28958;SDS011;16066;0.000;0.000;2023-06-22T10:53:13;7.40;;;6.70;;
28958;SDS011;16066;0.000;0.000;2023-06-22T10:55:38;11.47;;;7.47;;
28958;SDS011;16066;0.000;0.000;2023-06-22T10:58:04;8.40;;;7.53;;
28958;SDS011;16066;0.000;0.000;2023-06-22T11:00:30;10.00;;;7.60;;
28958;SDS011;16066;0.000;0.000;2023-06-22T11:02:55;6.83;;;6.13;;
28958;SDS011;16066;0.000;0.000;2023-06-22T11:05:21;9.80;;;6.73;;
28958;SDS011;16066;0.000;0.000;2023-06-22T11:07:47;7.77;;;7.00;;
28958;SDS011;16066;0.000;0.000;2023-06-22T11:10:14;10.13;;;7.67;;
28958;SDS011;16066;0.000;0.000;2023-06-22T11:12:40;8.57;;;7.00;;
28958;SDS011;16066;0.000;0.000;2023-06-22T11:15:07;10.47;;;7.50;;
28958;SDS011;16066;0.000;0.000;2023-06-22T11:17:33;10.50;;;6.80;;
28958;SDS011;16066;0.000;0.000;2023-06-22T11:19:59;10.30;;;6.83;;
28958;SDS011;16066;0.000;0.000;2023-06-22T11:22:25;10.17;;;7.30;;
28958;SDS011;16066;0.000;0.000;2023-06-22T11:24:50;15.80;;;9.07;;
28958;SDS011;16066;0.000;0.000;2023-06-22T11:27:16;8.43;;;7.60;;
28958;SDS011;16066;0.000;0.000;2023-06-22T11:29:41;12.10;;;8.00;;
28958;SDS011;16066;0.000;0.000;2023-06-22T11:32:07;10.93;;;8.43;;
28958;SDS011;16066;0.000;0.000;2023-06-22T11:34:33;15.03;;;8.60;;
28958;SDS011;16066;0.000;0.000;2023-06-22T11:36:58;12.97;;;9.13;;
28958;SDS011;16066;0.000;0.000;2023-06-22T11:39:24;10.60;;;7.70;;
28958;SDS011;16066;0.000;0.000;2023-06-22T11:41:49;11.20;;;8.90;;
28958;SDS011;16066;0.000;0.000;2023-06-22T11:44:15;10.87;;;8.70;;
28958;SDS011;16066;0.000;0.000;2023-06-22T11:46:40;10.93;;;9.30;;
28958;SDS011;16066;0.000;0.000;2023-06-22T11:49:06;13.40;;;9.63;;
28958;SDS011;16066;0.000;0.000;2023-06-22T11:51:31;10.03;;;8.23;;
28958;SDS011;16066;0.000;0.000;2023-06-22T11:53:57;13.40;;;10.00;;
28958;SDS011;16066;0.000;0.000;2023-06-22T11:56:23;10.23;;;8.87;;
28958;SDS011;16066;0.000;0.000;2023-06-22T11:58:49;17.33;;;9.30;;
28958;SDS011;16066;0.000;0.000;2023-06-22T12:01:14;11.40;;;9.43;;
28958;SDS011;16066;0.000;0.000;2023-06-22T12:03:40;15.13;;;9.40;;
28958;SDS011;16066;0.000;0.000;2023-06-22T12:06:08;16.17;;;9.90;;
28958;SDS011;16066;0.000;0.000;2023-06-22T12:08:33;11.70;;;8.50;;
28958;SDS011;16066;0.000;0.000;2023-06-22T12:10:59;15.23;;;8.80;;
28958;SDS011;16066;0.000;0.000;2023-06-22T12:13:24;13.40;;;9.67;;
28958;SDS011;16066;0.000;0.000;2023-06-22T12:15:50;14.60;;;9.20;;
28958;SDS011;16066;0.000;0.000;2023-06-22T12:18:17;14.70;;;8.70;;
28958;SDS011;16066;0.000;0.000;2023-06-22T12:20:45;14.50;;;9.80;;
28958;SDS011;16066;0.000;0.000;2023-06-22T12:23:11;12.67;;;8.97;;
28958;SDS011;16066;0.000;0.000;2023-06-22T12:25:36;15.57;;;9.57;;
28958;SDS011;16066;0.000;0.000;2023-06-22T12:28:02;12.33;;;9.30;;
28958;SDS011;16066;0.000;0.000;2023-06-22T12:30:29;13.83;;;9.00;;
28958;SDS011;16066;0.000;0.000;2023-06-22T12:32:55;12.40;;;9.90;;
28958;SDS011;16066;0.000;0.000;2023-06-22T12:35:20;13.20;;;9.33;;
28958;SDS011;16066;0.000;0.000;2023-06-22T12:37:46;13.40;;;10.20;;
28958;SDS011;16066;0.000;0.000;2023-06-22T12:40:11;10.57;;;8.83;;
28958;SDS011;16066;0.000;0.000;2023-06-22T12:42:37;10.50;;;9.40;;
28958;SDS011;16066;0.000;0.000;2023-06-22T12:45:03;11.40;;;10.20;;
28958;SDS011;16066;0.000;0.000;2023-06-22T12:47:29;11.73;;;10.47;;
28958;SDS011;16066;0.000;0.000;2023-06-22T12:49:55;13.47;;;9.67;;
28958;SDS011;16066;0.000;0.000;2023-06-22T12:52:20;14.57;;;9.07;;
28958;SDS011;16066;0.000;0.000;2023-06-22T12:54:46;10.90;;;9.00;;
28958;SDS011;16066;0.000;0.000;2023-06-22T12:57:11;11.37;;;9.57;;
28958;SDS011;16066;0.000;0.000;2023-06-22T12:59:37;10.80;;;9.37;;
28958;SDS011;16066;0.000;0.000;2023-06-22T13:02:02;11.33;;;8.90;;
28958;SDS011;16066;0.000;0.000;2023-06-22T13:04:28;13.50;;;10.10;;
28958;SDS011;16066;0.000;0.000;2023-06-22T13:06:54;12.63;;;9.47;;
28958;SDS011;16066;0.000;0.000;2023-06-22T13:09:19;14.50;;;9.90;;
28958;SDS011;16066;0.000;0.000;2023-06-22T13:11:45;12.27;;;9.97;;
28958;SDS011;16066;0.000;0.000;2023-06-22T13:14:10;9.60;;;8.60;;
28958;SDS011;16066;0.000;0.000;2023-06-22T13:16:36;12.50;;;8.60;;
28958;SDS011;16066;0.000;0.000;2023-06-22T13:19:02;14.57;;;9.23;;
28958;SDS011;16066;0.000;0.000;2023-06-22T13:21:28;10.70;;;9.13;;
28958;SDS011;16066;0.000;0.000;2023-06-22T13:23:53;9.90;;;8.87;;
28958;SDS011;16066;0.000;0.000;2023-06-22T13:26:20;10.47;;;8.87;;
28958;SDS011;16066;0.000;0.000;2023-06-22T13:28:46;17.57;;;8.50;;
28958;SDS011;16066;0.000;0.000;2023-06-22T13:31:11;12.10;;;9.23;;
28958;SDS011;16066;0.000;0.000;2023-06-22T13:33:37;10.00;;;8.10;;
28958;SDS011;16066;0.000;0.000;2023-06-22T13:36:03;10.40;;;8.40;;
28958;SDS011;16066;0.000;0.000;2023-06-22T13:38:31;11.60;;;8.63;;
28958;SDS011;16066;0.000;0.000;2023-06-22T13:40:57;12.40;;;9.17;;
28958;SDS011;16066;0.000;0.000;2023-06-22T13:43:24;10.17;;;9.10;;
28958;SDS011;16066;0.000;0.000;2023-06-22T13:45:51;12.40;;;8.30;;
28958;SDS011;16066;0.000;0.000;2023-06-22T13:48:17;10.07;;;8.13;;
28958;SDS011;16066;0.000;0.000;2023-06-22T13:50:43;10.87;;;9.00;;
28958;SDS011;16066;0.000;0.000;2023-06-22T13:53:08;10.40;;;9.07;;
28958;SDS011;16066;0.000;0.000;2023-06-22T13:55:34;12.10;;;8.90;;
28958;SDS011;16066;0.000;0.000;2023-06-22T13:57:59;9.70;;;8.67;;
28958;SDS011;16066;0.000;0.000;2023-06-22T14:00:25;11.90;;;9.17;;
28958;SDS011;16066;0.000;0.000;2023-06-22T14:02:52;12.97;;;8.27;;
28958;SDS011;16066;0.000;0.000;2023-06-22T14:05:18;10.20;;;8.37;;
28958;SDS011;16066;0.000;0.000;2023-06-22T14:07:44;10.20;;;8.73;;
28958;SDS011;16066;0.000;0.000;2023-06-22T14:10:10;11.07;;;8.77;;
28958;SDS011;16066;0.000;0.000;2023-06-22T14:12:35;10.07;;;8.27;;
28958;SDS011;16066;0.000;0.000;2023-06-22T14:15:01;8.90;;;7.00;;
28958;SDS011;16066;0.000;0.000;2023-06-22T14:17:26;10.60;;;9.50;;
28958;SDS011;16066;0.000;0.000;2023-06-22T14:19:52;11.77;;;8.17;;
28958;SDS011;16066;0.000;0.000;2023-06-22T14:22:21;8.80;;;7.90;;
28958;SDS011;16066;0.000;0.000;2023-06-22T14:24:47;8.97;;;7.40;;
28958;SDS011;16066;0.000;0.000;2023-06-22T14:27:13;10.40;;;8.20;;
28958;SDS011;16066;0.000;0.000;2023-06-22T14:29:39;11.47;;;8.00;;
28958;SDS011;16066;0.000;0.000;2023-06-22T14:32:04;9.70;;;8.70;;
28958;SDS011;16066;0.000;0.000;2023-06-22T14:34:31;8.90;;;8.00;;
28958;SDS011;16066;0.000;0.000;2023-06-22T14:36:57;9.53;;;8.53;;
28958;SDS011;16066;0.000;0.000;2023-06-22T14:39:23;9.80;;;8.80;;
28958;SDS011;16066;0.000;0.000;2023-06-22T14:41:48;10.23;;;8.57;;
28958;SDS011;16066;0.000;0.000;2023-06-22T14:44:14;8.53;;;7.60;;
28958;SDS011;16066;0.000;0.000;2023-06-22T14:46:40;7.67;;;6.87;;
28958;SDS011;16066;0.000;0.000;2023-06-22T14:49:06;9.67;;;7.90;;
28958;SDS011;16066;0.000;0.000;2023-06-22T14:51:31;9.10;;;7.77;;
28958;SDS011;16066;0.000;0.000;2023-06-22T14:53:57;12.20;;;8.53;;
28958;SDS011;16066;0.000;0.000;2023-06-22T14:56:22;7.40;;;6.63;;
28958;SDS011;16066;0.000;0.000;2023-06-22T14:58:47;9.40;;;7.10;;
28958;SDS011;16066;0.000;0.000;2023-06-22T15:01:17;8.00;;;6.47;;
28958;SDS011;16066;0.000;0.000;2023-06-22T15:03:43;8.33;;;7.40;;
28958;SDS011;16066;0.000;0.000;2023-06-22T15:06:08;9.23;;;8.03;;
28958;SDS011;16066;0.000;0.000;2023-06-22T15:08:34;16.37;;;8.40;;
28958;SDS011;16066;0.000;0.000;2023-06-22T15:11:02;8.70;;;6.97;;
28958;SDS011;16066;0.000;0.000;2023-06-22T15:13:29;8.70;;;7.70;;
28958;SDS011;16066;0.000;0.000;2023-06-22T15:15:58;8.27;;;7.37;;
28958;SDS011;16066;0.000;0.000;2023-06-22T15:18:24;8.70;;;7.90;;
28958;SDS011;16066;0.000;0.000;2023-06-22T15:20:50;11.07;;;8.37;;
28958;SDS011;16066;0.000;0.000;2023-06-22T15:23:15;9.27;;;8.10;;
28958;SDS011;16066;0.000;0.000;2023-06-22T15:25:41;9.70;;;7.83;;
28958;SDS011;16066;0.000;0.000;2023-06-22T15:28:07;10.43;;;8.20;;
28958;SDS011;16066;0.000;0.000;2023-06-22T15:30:32;8.10;;;7.30;;
28958;SDS011;16066;0.000;0.000;2023-06-22T15:32:58;8.40;;;7.50;;
28958;SDS011;16066;0.000;0.000;2023-06-22T15:35:25;8.77;;;7.87;;
28958;SDS011;16066;0.000;0.000;2023-06-22T15:37:50;10.60;;;8.20;;
28958;SDS011;16066;0.000;0.000;2023-06-22T15:40:16;9.63;;;7.40;;
28958;SDS011;16066;0.000;0.000;2023-06-22T15:42:41;9.20;;;7.90;;
28958;SDS011;16066;0.000;0.000;2023-06-22T15:45:08;10.53;;;7.73;;
28958;SDS011;16066;0.000;0.000;2023-06-22T15:47:34;10.33;;;8.10;;
28958;SDS011;16066;0.000;0.000;2023-06-22T15:49:59;10.90;;;7.33;;
28958;SDS011;16066;0.000;0.000;2023-06-22T15:52:25;9.70;;;7.47;;
28958;SDS011;16066;0.000;0.000;2023-06-22T15:54:50;7.97;;;6.70;;
28958;SDS011;16066;0.000;0.000;2023-06-22T15:57:18;10.30;;;7.60;;
28958;SDS011;16066;0.000;0.000;2023-06-22T15:59:44;9.90;;;8.20;;
28958;SDS011;16066;0.000;0.000;2023-06-22T16:02:09;14.40;;;8.70;;
28958;SDS011;16066;0.000;0.000;2023-06-22T16:04:35;12.27;;;8.77;;
28958;SDS011;16066;0.000;0.000;2023-06-22T16:07:02;11.20;;;9.33;;
28958;SDS011;16066;0.000;0.000;2023-06-22T16:09:28;13.47;;;9.03;;
28958;SDS011;16066;0.000;0.000;2023-06-22T16:11:55;15.43;;;9.27;;
28958;SDS011;16066;0.000;0.000;2023-06-22T16:14:21;12.10;;;8.90;;
28958;SDS011;16066;0.000;0.000;2023-06-22T16:16:47;13.63;;;8.47;;
28958;SDS011;16066;0.000;0.000;2023-06-22T16:19:13;11.37;;;9.00;;
28958;SDS011;16066;0.000;0.000;2023-06-22T16:21:39;14.43;;;8.20;;
28958;SDS011;16066;0.000;0.000;2023-06-22T16:24:04;10.40;;;8.10;;
28958;SDS011;16066;0.000;0.000;2023-06-22T16:26:37;10.40;;;8.63;;
28958;SDS011;16066;0.000;0.000;2023-06-22T16:29:04;14.70;;;8.90;;
28958;SDS011;16066;0.000;0.000;2023-06-22T16:31:31;11.10;;;7.70;;
28958;SDS011;16066;0.000;0.000;2023-06-22T16:33:57;12.73;;;8.30;;
28958;SDS011;16066;0.000;0.000;2023-06-22T16:36:22;9.80;;;7.87;;
28958;SDS011;16066;0.000;0.000;2023-06-22T16:38:48;13.43;;;7.00;;
28958;SDS011;16066;0.000;0.000;2023-06-22T16:41:15;10.73;;;8.17;;
28958;SDS011;16066;0.000;0.000;2023-06-22T16:43:40;10.60;;;8.17;;
28958;SDS011;16066;0.000;0.000;2023-06-22T16:46:06;9.47;;;8.47;;
28958;SDS011;16066;0.000;0.000;2023-06-22T16:48:32;11.30;;;8.83;;
28958;SDS011;16066;0.000;0.000;2023-06-22T16:50:58;10.17;;;7.77;;
28958;SDS011;16066;0.000;0.000;2023-06-22T16:53:23;10.80;;;7.40;;
28958;SDS011;16066;0.000;0.000;2023-06-22T16:55:50;9.60;;;7.60;;
28958;SDS011;16066;0.000;0.000;2023-06-22T16:58:15;11.30;;;8.10;;
28958;SDS011;16066;0.000;0.000;2023-06-22T17:00:43;8.70;;;7.80;;
28958;SDS011;16066;0.000;0.000;2023-06-22T17:03:11;8.70;;;7.80;;
28958;SDS011;16066;0.000;0.000;2023-06-22T17:05:55;8.20;;;7.40;;
28958;SDS011;16066;0.000;0.000;2023-06-22T17:08:21;8.40;;;6.93;;
28958;SDS011;16066;0.000;0.000;2023-06-22T17:10:47;8.77;;;6.80;;
28958;SDS011;16066;0.000;0.000;2023-06-22T17:13:14;7.07;;;6.37;;
28958;SDS011;16066;0.000;0.000;2023-06-22T17:15:40;7.07;;;6.37;;
28958;SDS011;16066;0.000;0.000;2023-06-22T17:18:07;8.20;;;6.67;;
28958;SDS011;16066;0.000;0.000;2023-06-22T17:20:33;9.47;;;7.93;;
28958;SDS011;16066;0.000;0.000;2023-06-22T17:22:58;8.17;;;6.70;;
28958;SDS011;16066;0.000;0.000;2023-06-22T17:25:24;7.87;;;6.97;;
28958;SDS011;16066;0.000;0.000;2023-06-22T17:27:57;8.10;;;7.27;;
28958;SDS011;16066;0.000;0.000;2023-06-22T17:30:28;10.00;;;7.37;;
28958;SDS011;16066;0.000;0.000;2023-06-22T17:32:54;8.23;;;7.40;;
28958;SDS011;16066;0.000;0.000;2023-06-22T17:35:19;7.50;;;6.70;;
28958;SDS011;16066;0.000;0.000;2023-06-22T17:37:49;7.43;;;6.50;;
28958;SDS011;16066;0.000;0.000;2023-06-22T17:40:16;7.60;;;6.80;;
28958;SDS011;16066;0.000;0.000;2023-06-22T17:42:43;7.00;;;6.40;;
28958;SDS011;16066;0.000;0.000;2023-06-22T17:45:22;10.27;;;6.30;;
28958;SDS011;16066;0.000;0.000;2023-06-22T17:47:49;7.50;;;6.70;;
28958;SDS011;16066;0.000;0.000;2023-06-22T17:50:15;9.03;;;7.23;;
28958;SDS011;16066;0.000;0.000;2023-06-22T17:52:41;8.17;;;6.80;;
28958;SDS011;16066;0.000;0.000;2023-06-22T17:55:14;11.03;;;7.10;;
28958;SDS011;16066;0.000;0.000;2023-06-22T17:57:40;8.90;;;6.70;;
28958;SDS011;16066;0.000;0.000;2023-06-22T18:00:07;8.30;;;7.50;;
28958;SDS011;16066;0.000;0.000;2023-06-22T18:02:44;8.07;;;7.23;;
28958;SDS011;16066;0.000;0.000;2023-06-22T18:05:10;8.70;;;7.57;;
28958;SDS011;16066;0.000;0.000;2023-06-22T18:07:36;9.90;;;8.10;;
28958;SDS011;16066;0.000;0.000;2023-06-22T18:10:02;8.87;;;8.00;;
28958;SDS011;16066;0.000;0.000;2023-06-22T18:12:29;9.20;;;7.70;;
28958;SDS011;16066;0.000;0.000;2023-06-22T18:14:56;11.07;;;7.40;;
28958;SDS011;16066;0.000;0.000;2023-06-22T18:17:22;10.60;;;6.67;;
28958;SDS011;16066;0.000;0.000;2023-06-22T18:19:49;7.17;;;6.30;;
28958;SDS011;16066;0.000;0.000;2023-06-22T18:22:16;8.90;;;6.47;;
28958;SDS011;16066;0.000;0.000;2023-06-22T18:24:43;7.37;;;6.67;;
28958;SDS011;16066;0.000;0.000;2023-06-22T18:27:10;8.60;;;7.20;;
28958;SDS011;16066;0.000;0.000;2023-06-22T18:29:36;8.17;;;7.27;;
28958;SDS011;16066;0.000;0.000;2023-06-22T18:32:04;9.40;;;8.27;;
28958;SDS011;16066;0.000;0.000;2023-06-22T18:34:30;10.10;;;8.10;;
28958;SDS011;16066;0.000;0.000;2023-06-22T18:36:56;9.57;;;8.53;;
28958;SDS011;16066;0.000;0.000;2023-06-22T18:39:24;9.00;;;8.07;;
28958;SDS011;16066;0.000;0.000;2023-06-22T18:41:51;9.33;;;7.63;;
28958;SDS011;16066;0.000;0.000;2023-06-22T18:44:20;9.10;;;7.77;;
28958;SDS011;16066;0.000;0.000;2023-06-22T18:46:49;9.47;;;8.07;;
28958;SDS011;16066;0.000;0.000;2023-06-22T18:49:22;10.83;;;7.70;;
28958;SDS011;16066;0.000;0.000;2023-06-22T18:51:52;10.20;;;8.00;;
28958;SDS011;16066;0.000;0.000;2023-06-22T18:54:22;9.50;;;7.43;;
28958;SDS011;16066;0.000;0.000;2023-06-22T18:56:59;8.93;;;7.83;;
28958;SDS011;16066;0.000;0.000;2023-06-22T18:59:41;7.93;;;6.90;;
28958;SDS011;16066;0.000;0.000;2023-06-22T19:05:05;9.57;;;6.67;;
28958;SDS011;16066;0.000;0.000;2023-06-22T19:12:52;7.40;;;5.53;;
28958;SDS011;16066;0.000;0.000;2023-06-22T19:15:19;7.97;;;4.70;;
28958;SDS011;16066;0.000;0.000;2023-06-22T19:17:48;5.83;;;4.83;;
28958;SDS011;16066;0.000;0.000;2023-06-22T19:20:17;5.70;;;4.90;;
28958;SDS011;16066;0.000;0.000;2023-06-22T19:22:44;6.03;;;4.47;;
28958;SDS011;16066;0.000;0.000;2023-06-22T19:25:21;8.40;;;4.70;;
28958;SDS011;16066;0.000;0.000;2023-06-22T19:27:52;8.70;;;4.50;;
28958;SDS011;16066;0.000;0.000;2023-06-22T19:30:19;9.37;;;4.97;;
28958;SDS011;16066;0.000;0.000;2023-06-22T19:32:45;8.33;;;4.70;;
28958;SDS011;16066;0.000;0.000;2023-06-22T19:35:12;8.13;;;4.73;;
28958;SDS011;16066;0.000;0.000;2023-06-22T19:37:39;5.57;;;4.40;;
28958;SDS011;16066;0.000;0.000;2023-06-22T19:40:10;9.60;;;5.63;;
28958;SDS011;16066;0.000;0.000;2023-06-22T19:42:40;5.73;;;4.53;;
28958;SDS011;16066;0.000;0.000;2023-06-22T19:45:07;7.57;;;4.80;;
28958;SDS011;16066;0.000;0.000;2023-06-22T19:47:34;7.20;;;4.70;;
28958;SDS011;16066;0.000;0.000;2023-06-22T19:50:02;8.70;;;4.90;;
28958;SDS011;16066;0.000;0.000;2023-06-22T19:52:35;5.50;;;4.70;;
28958;SDS011;16066;0.000;0.000;2023-06-22T19:55:02;10.70;;;7.10;;
28958;SDS011;16066;0.000;0.000;2023-06-22T19:57:36;8.90;;;5.17;;
28958;SDS011;16066;0.000;0.000;2023-06-22T20:00:05;4.80;;;4.30;;
28958;SDS011;16066;0.000;0.000;2023-06-22T20:02:37;7.93;;;3.63;;
28958;SDS011;16066;0.000;0.000;2023-06-22T20:05:07;6.53;;;3.60;;
28958;SDS011;16066;0.000;0.000;2023-06-22T20:07:34;3.70;;;3.30;;
28958;SDS011;16066;0.000;0.000;2023-06-22T20:10:05;3.13;;;2.70;;
28958;SDS011;16066;0.000;0.000;2023-06-22T20:12:35;3.33;;;2.23;;
28958;SDS011;16066;0.000;0.000;2023-06-22T20:18:04;2.37;;;1.80;;
28958;SDS011;16066;0.000;0.000;2023-06-22T20:20:34;1.90;;;1.53;;
28958;SDS011;16066;0.000;0.000;2023-06-22T20:23:00;1.97;;;1.60;;
28958;SDS011;16066;0.000;0.000;2023-06-22T20:25:29;4.17;;;1.43;;
28958;SDS011;16066;0.000;0.000;2023-06-22T20:27:57;1.77;;;1.57;;
28958;SDS011;16066;0.000;0.000;2023-06-22T20:30:39;1.93;;;1.13;;